Time;durP1;ratioP1;P1;durP2;ratioP2;P2;SDS_P1;SDS_P2;PMS_P1;PMS_P2;Temp;Humidity;BMP_temperature;BMP_pressure;BME280_temperature;BME280_humidity;BME280_pressure;Samples;Min_cycle;Max_cycle;Signal;HPM_P1;HPM_P2
2020/12/29 00:00:58;;;;;;;5.88;2.70;;;5.50;90.30;;;6.04;72.87;96926.47;5074887;28;20118;-82
2020/12/29 00:03:25;;;;;;;5.28;2.40;;;5.50;90.70;;;6.06;72.81;96935.97;5074082;28;20045;-82
2020/12/29 00:05:53;;;;;;;6.38;2.78;;;5.50;90.80;;;6.04;72.63;96934.56;5074267;28;20064;-82
2020/12/29 00:08:20;;;;;;;5.25;2.78;;;5.50;90.70;;;6.05;72.80;96928.09;5073634;28;20086;-82
2020/12/29 00:10:46;;;;;;;5.25;2.72;;;5.40;90.70;;;6.00;72.56;96933.44;5074357;28;20048;-82
2020/12/29 00:13:14;;;;;;;5.45;2.38;;;5.40;90.70;;;6.01;72.82;96932.34;5075148;28;20063;-82
2020/12/29 00:15:41;;;;;;;4.22;2.30;;;5.40;90.40;;;5.99;72.12;96937.19;5073881;28;20055;-82
2020/12/29 00:18:08;;;;;;;4.85;2.33;;;5.30;90.30;;;5.96;72.32;96945.75;5074385;28;20467;-82
2020/12/29 00:20:35;;;;;;;4.43;2.30;;;5.30;90.20;;;5.93;72.21;96940.81;5073986;28;20049;-82
2020/12/29 00:23:03;;;;;;;5.63;2.08;;;5.30;90.20;;;5.92;72.11;96939.16;5075013;28;20048;-82
2020/12/29 00:25:30;;;;;;;5.38;2.30;;;5.30;90.40;;;5.84;72.15;96938.50;5078301;28;20132;-82
2020/12/29 00:27:57;;;;;;;4.60;2.30;;;5.20;90.00;;;5.85;72.11;96942.84;5077825;28;20063;-82
2020/12/29 00:30:24;;;;;;;4.53;2.25;;;5.20;90.00;;;5.84;71.77;96941.19;5078237;28;20072;-82
2020/12/29 00:32:50;;;;;;;4.15;2.20;;;5.20;90.00;;;5.81;71.54;96939.00;5077724;28;20072;-82
2020/12/29 00:35:17;;;;;;;3.95;2.05;;;5.10;89.90;;;5.79;71.76;96938.44;5077054;28;20040;-82
2020/12/29 00:37:44;;;;;;;4.50;2.20;;;5.00;89.90;;;5.72;71.82;96940.44;5076607;28;20083;-82
2020/12/29 00:40:12;;;;;;;5.50;1.95;;;5.20;90.00;;;5.71;71.92;96944.19;5077069;28;20123;-82
2020/12/29 00:42:38;;;;;;;4.75;2.15;;;5.00;90.10;;;5.65;71.60;96947.88;5077893;28;20386;-82
2020/12/29 00:45:05;;;;;;;5.40;2.47;;;4.90;89.70;;;5.65;71.00;96951.41;5076085;28;20083;-82
2020/12/29 00:47:32;;;;;;;5.65;2.30;;;4.90;89.30;;;5.57;70.95;96951.75;5075657;28;20075;-82
2020/12/29 00:50:00;;;;;;;4.50;2.20;;;4.80;89.40;;;5.54;70.88;96949.56;5077226;28;20040;-82
2020/12/29 00:52:26;;;;;;;7.50;2.67;;;4.70;89.20;;;5.54;70.60;96954.13;5075836;28;20534;-82
2020/12/29 00:55:00;;;;;;;5.32;2.60;;;4.70;89.60;;;5.44;70.99;96944.78;5076417;28;20058;-82
2020/12/29 00:57:45;;;;;;;4.47;2.55;;;4.70;89.60;;;5.47;70.88;96938.91;5075908;28;20459;-82
2020/12/29 01:00:11;;;;;;;7.75;2.60;;;4.60;89.50;;;5.42;70.84;96951.47;5076355;28;20070;-82
2020/12/29 01:02:57;;;;;;;4.43;2.60;;;4.70;89.70;;;5.41;70.69;96953.34;5075844;28;20145;-82
2020/12/29 01:05:24;;;;;;;7.05;3.03;;;4.50;89.60;;;5.36;70.42;96953.25;5077265;28;20052;-82
2020/12/29 01:07:51;;;;;;;4.43;2.50;;;4.50;89.50;;;5.35;70.47;96945.38;5075232;28;20060;-82
2020/12/29 01:10:18;;;;;;;4.47;2.40;;;4.40;89.30;;;5.34;70.11;96946.47;5076369;28;20049;-82
2020/12/29 01:13:04;;;;;;;4.30;2.47;;;4.40;89.30;;;5.20;70.23;96952.13;5076802;28;20056;-82
2020/12/29 01:15:34;;;;;;;5.82;2.80;;;4.30;89.40;;;5.18;70.43;96956.09;5076273;28;20082;-82
2020/12/29 01:18:05;;;;;;;5.10;2.78;;;4.20;89.40;;;5.18;70.07;96961.50;5075714;28;20041;-82
2020/12/29 01:20:32;;;;;;;4.97;2.58;;;4.20;89.50;;;5.09;70.66;96980.72;5076527;28;20068;-82
2020/12/29 01:22:59;;;;;;;6.22;2.65;;;4.20;89.90;;;5.13;70.34;96969.50;5075886;28;20054;-82
2020/12/29 01:25:26;;;;;;;4.72;2.53;;;4.20;89.70;;;5.13;70.29;96969.50;5076754;28;20195;-82
2020/12/29 01:27:53;;;;;;;5.18;2.55;;;4.10;89.40;;;5.00;70.70;96965.97;5075825;28;20064;-82
2020/12/29 01:30:20;;;;;;;5.13;2.60;;;4.10;89.70;;;5.02;70.34;96968.44;5076964;28;20048;-82
2020/12/29 01:32:47;;;;;;;4.47;2.50;;;4.00;89.50;;;5.00;70.57;96971.38;5076532;28;20601;-82
2020/12/29 01:35:14;;;;;;;5.05;2.20;;;4.00;89.90;;;5.00;70.02;96974.06;5076751;28;20045;-82
2020/12/29 01:37:42;;;;;;;5.63;2.58;;;4.10;89.70;;;5.00;69.62;96976.75;5075995;28;20483;-83
2020/12/29 01:40:10;;;;;;;5.18;2.50;;;4.00;89.30;;;4.89;69.71;96975.72;5076554;28;20488;-82
2020/12/29 01:42:37;;;;;;;6.88;2.60;;;3.90;89.50;;;4.93;69.81;96981.47;5075930;28;20105;-82
2020/12/29 01:45:08;;;;;;;3.85;2.35;;;3.90;89.70;;;4.81;70.03;96977.94;5075899;28;20098;-82
2020/12/29 01:47:38;;;;;;;5.18;2.65;;;3.80;89.50;;;4.84;69.88;96983.69;5075719;28;20032;-82
2020/12/29 01:50:16;;;;;;;4.43;2.30;;;3.80;89.50;;;4.84;69.82;96988.28;5076051;28;20075;-82
2020/12/29 01:52:42;;;;;;;5.78;2.72;;;3.70;89.60;;;4.77;69.50;96992.94;5076001;28;20139;-82
2020/12/29 01:55:10;;;;;;;4.80;2.47;;;3.70;89.50;;;4.75;69.37;96989.66;5076004;28;20087;-82
2020/12/29 01:57:38;;;;;;;5.28;2.40;;;3.60;89.40;;;4.68;69.59;97001.38;5075558;28;20044;-83
2020/12/29 02:00:07;;;;;;;6.30;2.60;;;3.60;89.20;;;4.60;69.48;96999.03;5075703;28;20048;-82
2020/12/29 02:02:41;;;;;;;4.75;2.35;;;3.60;89.40;;;4.56;69.67;97013.19;5076000;28;20052;-82
2020/12/29 02:05:09;;;;;;;4.75;2.83;;;3.60;89.30;;;4.55;69.66;97009.69;5075828;28;20516;-82
2020/12/29 02:07:36;;;;;;;4.15;2.33;;;3.50;89.70;;;4.61;69.49;97016.03;5075482;28;20139;-82
2020/12/29 02:10:04;;;;;;;5.60;2.63;;;3.50;89.50;;;4.60;69.65;97017.06;5076270;28;20075;-82
2020/12/29 02:12:33;;;;;;;6.05;2.97;;;3.50;89.70;;;4.61;69.60;97013.31;5075370;28;20066;-82
2020/12/29 02:15:01;;;;;;;6.00;2.80;;;3.50;90.00;;;4.61;69.60;97011.44;5074988;28;20100;-82
2020/12/29 02:17:28;;;;;;;4.43;2.40;;;3.50;89.90;;;4.56;69.71;97011.31;5074579;28;20076;-82
2020/12/29 02:19:56;;;;;;;5.10;2.42;;;3.40;90.10;;;4.60;69.56;97019.75;5074932;28;20159;-82
2020/12/29 02:22:26;;;;;;;5.80;2.53;;;3.40;90.20;;;4.55;69.47;97012.38;5069346;28;20472;-82
2020/12/29 02:24:55;;;;;;;5.25;2.40;;;3.40;90.10;;;4.57;69.58;97020.22;5057714;28;20040;-82
2020/12/29 02:27:25;;;;;;;6.32;2.70;;;3.40;89.90;;;4.57;69.96;97021.06;5072936;28;20123;-82
2020/12/29 02:29:52;;;;;;;6.60;2.60;;;3.40;90.20;;;4.54;69.46;97021.50;5075393;28;20105;-82
2020/12/29 02:32:20;;;;;;;4.28;2.45;;;3.40;90.00;;;4.49;69.32;97018.69;5074674;28;20086;-82
2020/12/29 02:34:47;;;;;;;4.75;2.58;;;3.40;89.90;;;4.40;69.42;97022.75;5075318;28;20150;-82
2020/12/29 02:37:15;;;;;;;5.00;2.53;;;3.40;90.00;;;4.39;69.97;97021.13;5074191;28;20052;-82
2020/12/29 02:39:49;;;;;;;5.45;2.42;;;3.30;89.90;;;4.35;70.24;97022.66;5075399;28;20178;-82
2020/12/29 02:42:15;;;;;;;4.50;2.25;;;3.30;90.20;;;4.37;70.32;97020.53;5074897;28;20060;-82
2020/12/29 02:44:42;;;;;;;5.82;2.47;;;3.40;90.40;;;4.37;70.16;97017.84;5075062;28;20048;-81
2020/12/29 02:47:09;;;;;;;6.22;2.58;;;3.30;90.40;;;4.39;69.85;97019.25;5073892;28;20055;-82
2020/12/29 02:49:36;;;;;;;4.82;2.28;;;3.30;90.40;;;4.29;69.88;97017.13;5074624;28;20068;-82
2020/12/29 02:52:04;;;;;;;6.55;2.88;;;3.30;90.60;;;4.26;70.27;97014.88;5074973;28;20104;-82
2020/12/29 02:54:31;;;;;;;7.25;3.05;;;3.30;90.50;;;4.31;70.49;97015.03;5075005;28;20052;-82
2020/12/29 02:56:59;;;;;;;5.13;2.90;;;3.30;90.50;;;4.35;70.69;97019.97;5064155;28;20138;-82
2020/12/29 02:59:26;;;;;;;5.00;2.83;;;3.30;90.70;;;4.36;69.93;97017.03;5054426;28;20057;-82
2020/12/29 03:01:53;;;;;;;5.63;3.15;;;3.30;90.60;;;4.36;70.14;97016.19;5054316;28;20096;-82
2020/12/29 03:04:20;;;;;;;6.90;2.75;;;3.30;90.50;;;4.38;69.93;97016.78;5054833;28;20124;-82
2020/12/29 03:06:47;;;;;;;6.63;3.20;;;3.30;90.70;;;4.26;70.42;97025.66;5054498;28;20037;-82
2020/12/29 03:09:15;;;;;;;5.55;3.30;;;3.40;90.70;;;4.31;69.88;97023.09;5054213;28;20049;-82
2020/12/29 03:11:44;;;;;;;5.65;2.72;;;3.30;90.20;;;4.19;69.79;97041.09;5054953;28;20476;-82
2020/12/29 03:14:13;;;;;;;4.95;3.05;;;3.20;90.00;;;4.23;69.70;97036.09;5070261;28;20041;-82
2020/12/29 03:16:40;;;;;;;5.25;2.88;;;3.20;89.80;;;4.17;70.08;97042.34;5054099;28;20132;-82
2020/12/29 03:19:07;;;;;;;5.07;2.30;;;3.20;90.00;;;4.09;69.95;97049.72;5054143;28;20072;-82
2020/12/29 03:21:34;;;;;;;6.45;2.97;;;3.10;89.90;;;4.14;70.01;97051.72;5054466;28;20076;-82
2020/12/29 03:24:01;;;;;;;6.95;2.72;;;3.00;90.00;;;4.03;69.64;97047.13;5054002;28;20405;-82
2020/12/29 03:26:27;;;;;;;5.25;2.63;;;3.10;90.00;;;3.90;70.50;97048.97;5054553;28;20405;-82
2020/12/29 03:28:54;;;;;;;5.97;2.50;;;3.10;90.00;;;3.92;70.11;97057.63;5054280;28;20095;-82
2020/12/29 03:31:22;;;;;;;5.53;2.65;;;3.10;89.80;;;4.00;69.94;97055.63;5054283;28;20053;-82
2020/12/29 03:33:49;;;;;;;4.88;2.50;;;3.00;89.80;;;4.00;69.90;97067.25;5052748;28;20044;-82
2020/12/29 03:36:16;;;;;;;5.57;2.55;;;3.00;89.80;;;3.88;69.67;97072.56;5054010;28;20072;-82
2020/12/29 03:38:43;;;;;;;6.97;2.85;;;2.90;90.00;;;3.94;70.49;97080.75;5052383;28;20127;-82
2020/12/29 03:41:09;;;;;;;4.82;2.58;;;2.90;90.10;;;3.95;70.30;97087.81;5054086;28;20067;-82
2020/12/29 03:43:36;;;;;;;6.00;3.25;;;3.00;90.10;;;3.89;69.47;97084.16;5054650;28;20127;-82
2020/12/29 03:46:03;;;;;;;5.57;2.60;;;2.90;89.80;;;3.76;70.53;97087.81;5054630;28;20073;-82
2020/12/29 03:48:31;;;;;;;4.93;2.58;;;2.90;90.00;;;3.89;69.86;97084.97;5054549;28;20140;-82
2020/12/29 03:50:57;;;;;;;8.63;3.00;;;2.90;89.90;;;3.95;69.77;97090.50;5054316;28;20073;-82
2020/12/29 03:53:24;;;;;;;4.95;2.95;;;2.90;89.70;;;3.92;69.59;97089.91;5054674;28;20106;-81
2020/12/29 03:55:51;;;;;;;5.05;2.58;;;2.90;90.00;;;3.88;69.73;97094.09;5054884;28;20072;-82
2020/12/29 03:58:17;;;;;;;8.18;3.25;;;2.90;90.00;;;3.91;69.76;97092.81;5057109;28;20083;-82
2020/12/29 04:00:44;;;;;;;6.55;3.58;;;2.90;89.70;;;3.90;68.94;97094.69;5057794;28;20072;-82
2020/12/29 04:03:11;;;;;;;8.23;3.80;;;2.90;89.80;;;3.90;69.75;97097.38;5058062;28;20118;-82
2020/12/29 04:05:38;;;;;;;6.88;3.58;;;2.80;90.00;;;3.89;69.83;97095.72;5058124;28;20766;-82
2020/12/29 04:08:05;;;;;;;6.95;3.40;;;2.80;89.90;;;3.86;69.41;97095.34;5057593;28;20049;-82
2020/12/29 04:10:32;;;;;;;6.07;3.75;;;2.80;89.80;;;3.88;69.92;97102.16;5057778;28;20060;-82
2020/12/29 04:12:59;;;;;;;5.07;2.80;;;2.80;90.00;;;3.88;70.61;97104.00;5064823;28;20036;-82
2020/12/29 04:15:25;;;;;;;9.32;3.60;;;2.90;90.40;;;3.79;70.21;97106.19;5077383;28;20119;-82
2020/12/29 04:17:52;;;;;;;7.05;3.53;;;2.80;90.40;;;3.80;70.92;97110.53;5077312;28;20125;-82
2020/12/29 04:20:20;;;;;;;7.43;3.67;;;2.90;90.70;;;3.78;71.52;97109.91;5077941;28;20135;-82
2020/12/29 04:22:48;;;;;;;5.80;3.13;;;2.90;91.00;;;3.81;71.59;97103.25;5078109;28;20052;-82
2020/12/29 04:25:15;;;;;;;6.25;3.28;;;3.00;91.10;;;3.90;71.22;97121.59;5075654;28;20098;-82
2020/12/29 04:27:42;;;;;;;5.07;3.00;;;3.00;91.00;;;3.89;71.40;97121.81;5075531;28;20060;-82
2020/12/29 04:30:10;;;;;;;6.65;3.08;;;3.00;91.60;;;3.83;71.69;97123.53;5077818;28;20044;-82
2020/12/29 04:32:37;;;;;;;8.85;3.17;;;3.00;91.70;;;3.94;72.11;97131.88;5077525;28;20072;-82
2020/12/29 04:35:05;;;;;;;5.82;3.10;;;3.10;91.80;;;3.99;72.02;97127.47;5077017;28;20052;-82
2020/12/29 04:37:32;;;;;;;8.38;4.50;;;3.10;91.90;;;4.04;71.26;97129.50;5076805;28;20102;-81
2020/12/29 04:39:59;;;;;;;6.03;2.95;;;3.10;91.80;;;4.05;71.17;97128.44;5077669;28;20083;-82
2020/12/29 04:42:27;;;;;;;6.43;3.20;;;3.10;91.60;;;4.07;72.25;97129.88;5077207;28;20068;-82
2020/12/29 04:44:54;;;;;;;5.55;2.92;;;3.20;91.80;;;4.10;72.00;97136.66;5077287;28;20055;-82
2020/12/29 04:47:27;;;;;;;5.18;2.85;;;3.10;92.00;;;4.10;72.13;97139.34;5076762;28;20051;-82
2020/12/29 04:49:55;;;;;;;4.53;2.53;;;3.10;92.10;;;4.09;72.47;97140.38;5077870;28;20053;-82
2020/12/29 04:52:22;;;;;;;8.82;3.13;;;3.20;92.20;;;3.94;72.57;97146.16;5077472;28;20496;-82
2020/12/29 04:54:54;;;;;;;5.07;2.85;;;3.20;92.20;;;3.92;72.86;97143.69;5077157;28;20051;-82
2020/12/29 04:57:24;;;;;;;4.65;2.53;;;3.20;92.30;;;3.85;73.07;97155.59;5076763;28;20466;-82
2020/12/29 04:59:51;;;;;;;5.15;2.80;;;3.30;92.30;;;3.81;72.97;97155.22;5077192;28;20408;-82
2020/12/29 05:02:18;;;;;;;4.95;2.60;;;3.20;92.10;;;3.89;73.26;97160.28;5076473;28;20108;-82
2020/12/29 05:04:45;;;;;;;4.43;2.38;;;3.30;92.30;;;3.99;73.20;97167.00;5076763;28;20140;-82
2020/12/29 05:07:12;;;;;;;6.93;2.70;;;3.30;92.30;;;4.00;73.45;97165.94;5076724;28;20421;-81
2020/12/29 05:09:39;;;;;;;7.25;2.75;;;3.50;92.40;;;3.94;73.50;97166.84;5075783;28;20044;-82
2020/12/29 05:12:06;;;;;;;6.63;2.72;;;3.30;92.50;;;3.97;73.65;97167.22;5075128;28;20710;-82
2020/12/29 05:14:33;;;;;;;7.10;2.70;;;3.30;92.40;;;3.99;73.52;97172.38;5062296;28;20887;-82
2020/12/29 05:17:02;;;;;;;5.63;2.45;;;3.30;92.20;;;4.04;72.77;97175.22;5056610;28;20139;-82
2020/12/29 05:19:33;;;;;;;9.55;2.75;;;3.30;92.10;;;4.06;72.86;97173.13;5056027;28;20120;-82
2020/12/29 05:22:00;;;;;;;4.18;2.60;;;3.30;91.80;;;4.09;72.41;97178.03;5056433;28;20049;-82
2020/12/29 05:24:26;;;;;;;5.13;3.13;;;3.20;91.50;;;4.09;72.27;97183.44;5056531;28;20178;-82
2020/12/29 05:26:56;;;;;;;7.25;2.88;;;3.20;91.30;;;4.09;71.90;97186.13;5056420;28;20135;-82
2020/12/29 05:29:25;;;;;;;6.60;2.67;;;3.20;91.20;;;4.05;71.37;97191.13;5056776;28;20053;-82
2020/12/29 05:31:54;;;;;;;5.75;2.80;;;3.10;91.10;;;3.97;71.53;97194.13;5056397;28;20049;-82
2020/12/29 05:34:22;;;;;;;5.30;3.03;;;3.10;91.10;;;3.99;71.93;97205.47;5056367;28;20140;-82
2020/12/29 05:36:50;;;;;;;5.93;2.70;;;3.10;91.00;;;3.93;71.91;97203.69;5071841;28;20568;-82
2020/12/29 05:39:18;;;;;;;5.68;2.85;;;3.10;91.20;;;3.93;71.28;97206.38;5056578;28;20064;-82
2020/12/29 05:41:46;;;;;;;5.28;2.72;;;3.10;91.00;;;3.97;71.13;97217.53;5055841;28;20076;-82
2020/12/29 05:44:23;;;;;;;5.55;2.60;;;3.00;90.70;;;3.98;71.07;97216.47;5056770;28;20049;-82
2020/12/29 05:46:50;;;;;;;7.45;2.92;;;3.00;91.00;;;3.96;70.96;97218.56;5056375;28;20048;-82
2020/12/29 05:49:20;;;;;;;6.43;3.00;;;3.00;91.00;;;3.96;71.25;97218.56;5055937;28;20127;-82
2020/12/29 05:51:49;;;;;;;5.68;3.05;;;3.10;91.30;;;3.96;71.56;97218.56;5056796;28;20052;-82
2020/12/29 05:54:17;;;;;;;5.25;2.80;;;3.00;91.50;;;3.89;72.15;97219.47;5055896;28;20405;-81
2020/12/29 05:56:44;;;;;;;4.53;2.70;;;3.00;91.60;;;3.94;72.01;97226.88;5056235;28;20100;-82
2020/12/29 05:59:13;;;;;;;8.38;3.45;;;3.10;91.80;;;3.97;72.60;97230.97;5055713;28;20076;-82
2020/12/29 06:01:41;;;;;;;7.25;2.75;;;3.10;92.20;;;4.00;72.93;97235.91;5055835;28;20132;-82
2020/12/29 06:04:09;;;;;;;6.30;3.22;;;3.10;92.00;;;4.03;72.59;97244.34;5056139;28;20473;-82
2020/12/29 06:06:38;;;;;;;5.63;3.10;;;3.20;92.20;;;4.03;73.10;97246.22;5055464;28;20067;-81
2020/12/29 06:09:09;;;;;;;8.07;3.17;;;3.20;92.30;;;4.02;72.91;97247.28;5054978;28;20064;-81
2020/12/29 06:11:52;;;;;;;8.30;3.25;;;3.20;92.20;;;4.02;73.32;97256.16;5062678;28;20104;-81
2020/12/29 06:14:22;;;;;;;8.88;3.20;;;3.30;92.40;;;4.06;73.15;97256.56;5075855;28;20131;-82
2020/12/29 06:16:48;;;;;;;7.43;3.22;;;3.50;92.80;;;4.11;72.71;97260.22;5075494;28;20107;-82
2020/12/29 06:19:24;;;;;;;8.07;3.42;;;3.30;92.30;;;4.11;72.71;97259.38;5075129;28;20112;-81
2020/12/29 06:22:06;;;;;;;6.80;3.53;;;3.30;92.20;;;4.02;73.60;97274.19;5073210;28;20159;-81
2020/12/29 06:24:35;;;;;;;6.78;3.42;;;3.30;92.30;;;4.05;73.29;97279.09;5074920;28;20064;-82
2020/12/29 06:27:04;;;;;;;8.07;3.95;;;3.40;92.20;;;4.05;73.69;97287.19;5074332;28;20761;-81
2020/12/29 06:29:37;;;;;;;8.18;3.75;;;3.40;92.30;;;4.07;73.57;97294.00;5075342;28;20076;-82
2020/12/29 06:32:11;;;;;;;8.80;3.70;;;3.40;92.40;;;4.08;73.29;97298.31;5074772;28;20065;-81
2020/12/29 06:34:39;;;;;;;7.25;3.58;;;3.50;92.40;;;4.02;73.68;97293.84;5074942;28;20492;-81
2020/12/29 06:37:23;;;;;;;7.03;3.40;;;3.40;92.40;;;4.10;73.03;97295.41;5074915;28;20467;-82
2020/12/29 06:39:54;;;;;;;7.60;3.85;;;3.30;92.30;;;4.09;73.44;97307.22;5075384;28;20351;-81
2020/12/29 06:42:21;;;;;;;7.70;3.55;;;3.30;92.40;;;4.08;72.91;97306.41;5075375;28;20139;-81
2020/12/29 06:44:56;;;;;;;7.80;4.10;;;3.40;92.20;;;4.04;72.88;97309.78;5075220;28;20676;-83
2020/12/29 06:47:27;;;;;;;7.68;3.95;;;3.40;92.20;;;4.08;73.44;97313.66;5075024;28;20178;-81
2020/12/29 06:49:55;;;;;;;7.65;4.35;;;3.30;92.40;;;4.08;72.94;97324.41;5074970;28;20912;-81
2020/12/29 06:52:33;;;;;;;8.82;4.28;;;3.30;92.10;;;4.11;73.11;97329.34;5075452;28;20581;-81
2020/12/29 06:55:01;;;;;;;8.13;4.43;;;3.30;92.20;;;4.00;72.82;97328.22;5075634;28;20072;-82
2020/12/29 06:57:47;;;;;;;7.72;4.28;;;3.30;92.20;;;4.02;73.54;97330.69;5074183;28;20127;-81
2020/12/29 07:00:22;;;;;;;8.82;4.63;;;3.30;92.20;;;4.03;72.52;97332.31;5072954;28;20075;-81
2020/12/29 07:02:52;;;;;;;7.65;4.43;;;3.30;92.10;;;4.02;73.25;97341.47;5074852;28;20091;-82
2020/12/29 07:05:21;;;;;;;9.18;4.82;;;3.30;92.60;;;4.06;73.81;97339.97;5077155;28;20097;-82
2020/12/29 07:07:55;;;;;;;10.00;5.43;;;3.30;92.80;;;4.05;74.09;97343.69;5075681;28;20043;-83
2020/12/29 07:10:23;;;;;;;10.80;5.50;;;3.40;93.30;;;4.05;74.52;97346.38;5074276;28;20086;-83
2020/12/29 07:12:51;;;;;;;12.50;5.65;;;3.40;93.30;;;4.09;74.29;97352.97;5073277;28;20040;-84
2020/12/29 07:15:21;;;;;;;10.30;5.97;;;3.50;93.60;;;4.11;74.71;97356.25;5073163;28;20064;-84
2020/12/29 07:17:59;;;;;;;9.73;6.15;;;3.50;93.50;;;4.17;74.55;97368.00;5073574;28;20068;-84
2020/12/29 07:20:30;;;;;;;11.88;6.50;;;3.50;93.80;;;4.17;74.72;97371.53;5073485;28;20047;-83
2020/12/29 07:23:05;;;;;;;9.05;5.70;;;3.60;93.60;;;4.10;74.62;97381.53;5073852;28;20174;-84
2020/12/29 07:25:33;;;;;;;11.27;6.53;;;3.60;93.50;;;4.15;74.85;97389.78;5073899;28;20152;-84
2020/12/29 07:28:03;;;;;;;10.27;6.00;;;3.60;93.60;;;4.14;75.05;97400.75;5073308;28;20711;-83
2020/12/29 07:30:30;;;;;;;12.98;6.43;;;3.70;93.60;;;4.14;75.49;97393.50;5072705;28;20318;-83
2020/12/29 07:33:00;;;;;;;12.55;6.47;;;3.70;93.60;;;4.11;75.14;97404.69;5073572;28;20127;-83
2020/12/29 07:35:35;;;;;;;15.32;7.13;;;3.70;93.70;;;4.16;75.42;97406.75;5072621;28;20079;-84
2020/12/29 07:38:12;;;;;;;13.18;7.15;;;3.80;93.60;;;4.14;75.77;97409.63;5073538;28;20071;-83
2020/12/29 07:40:39;;;;;;;13.70;7.63;;;3.80;93.60;;;4.16;75.84;97410.25;5072761;28;20055;-83
2020/12/29 07:43:07;;;;;;;13.90;7.50;;;3.80;93.70;;;4.22;75.53;97414.72;5073610;28;20127;-83
2020/12/29 07:45:34;;;;;;;14.73;7.70;;;3.80;93.70;;;4.20;75.58;97422.22;5073127;28;20447;-83
2020/12/29 07:48:01;;;;;;;15.30;8.05;;;3.80;93.40;;;4.20;75.44;97424.91;5072864;28;20052;-83
2020/12/29 07:50:28;;;;;;;14.80;8.30;;;3.80;93.40;;;4.20;76.11;97422.22;5074330;28;20036;-83
2020/12/29 07:53:02;;;;;;;13.75;8.50;;;3.90;93.50;;;4.30;75.54;97421.72;5072812;28;20819;-84
2020/12/29 07:55:29;;;;;;;14.63;8.27;;;3.90;93.70;;;4.36;75.13;97431.63;5075331;28;20076;-84
2020/12/29 07:58:00;;;;;;;16.70;8.90;;;3.90;93.60;;;4.29;75.50;97439.72;5074807;28;20124;-84
2020/12/29 08:00:27;;;;;;;15.95;8.80;;;3.90;93.60;;;4.34;75.85;97435.56;5073863;28;20071;-84
2020/12/29 08:02:54;;;;;;;18.15;8.45;;;4.00;93.50;;;4.40;75.44;97443.59;5074039;28;20068;-83
2020/12/29 08:05:22;;;;;;;15.57;8.82;;;4.00;93.50;;;4.36;76.03;97449.63;5074529;28;20048;-84
2020/12/29 08:07:55;;;;;;;16.20;8.52;;;4.00;93.50;;;4.42;75.58;97454.97;5074599;28;20036;-84
2020/12/29 08:10:24;;;;;;;17.20;8.82;;;4.00;93.50;;;4.38;75.51;97464.53;5075208;28;20071;-84
2020/12/29 08:12:56;;;;;;;20.10;10.60;;;4.10;93.50;;;4.37;75.89;97467.44;5072832;28;20045;-83
2020/12/29 08:15:24;;;;;;;;;;;4.10;93.40;;;4.37;76.07;97478.19;5074010;28;20075;-83
2020/12/29 08:18:07;;;;;;;16.40;8.90;;;4.10;93.10;;;4.37;75.48;97480.91;5073395;28;20448;-83
2020/12/29 08:20:42;;;;;;;18.63;9.50;;;4.10;93.00;;;4.31;76.04;97496.88;5073710;28;20553;-83
2020/12/29 08:23:09;;;;;;;19.23;10.70;;;4.10;92.90;;;4.37;76.02;97494.34;5073387;28;20098;-83
2020/12/29 08:25:37;;;;;;;16.08;8.63;;;4.30;93.20;;;4.42;76.17;97500.72;5073992;28;20049;-83
2020/12/29 08:28:05;;;;;;;17.85;9.15;;;4.10;93.20;;;4.37;75.81;97505.13;5073477;28;20079;-83
2020/12/29 08:30:35;;;;;;;13.48;8.80;;;4.10;93.10;;;4.43;75.80;97509.63;5072338;28;20547;-83
2020/12/29 08:33:05;;;;;;;14.43;8.70;;;4.20;93.20;;;4.47;76.06;97510.81;5073368;28;20139;-83
2020/12/29 08:35:43;;;;;;;17.77;9.02;;;4.20;93.20;;;4.41;76.40;97515.22;5073593;28;20123;-83
2020/12/29 08:38:44;;;;;;;16.98;8.80;;;4.20;93.20;;;4.52;76.19;97518.25;5072850;28;20127;-83
2020/12/29 08:41:18;;;;;;;15.25;8.27;;;4.30;93.20;;;4.50;75.96;97521.16;5071148;28;20079;-82
2020/12/29 08:43:47;;;;;;;13.20;8.07;;;4.30;93.10;;;4.50;76.33;97535.44;5071313;28;20115;-83
2020/12/29 08:46:17;;;;;;;14.57;8.43;;;4.30;92.90;;;4.53;76.15;97536.88;5074821;28;20060;-83
2020/12/29 08:48:53;;;;;;;15.88;8.85;;;4.40;93.00;;;4.57;75.98;97543.50;5073024;28;20497;-83
2020/12/29 08:51:25;;;;;;;14.27;8.05;;;4.30;92.90;;;4.57;75.73;97546.19;5074686;28;20045;-83
2020/12/29 08:53:52;;;;;;;14.63;8.27;;;4.40;92.90;;;4.55;75.53;97556.34;5075543;28;20076;-83
2020/12/29 08:56:24;;;;;;;14.15;7.43;;;4.40;92.80;;;4.57;75.99;97556.97;5074862;28;20115;-84
2020/12/29 08:58:51;;;;;;;13.73;7.90;;;4.40;92.70;;;4.56;75.78;97576.84;5074843;28;20072;-83
2020/12/29 09:01:32;;;;;;;13.43;7.20;;;4.50;92.70;;;4.49;75.77;97573.38;5075259;28;20119;-83
2020/12/29 09:04:27;;;;;;;16.30;7.38;;;4.40;92.60;;;4.51;75.79;97587.44;5074368;28;20409;-83
2020/12/29 09:06:59;;;;;;;15.38;7.38;;;4.50;92.40;;;4.48;76.37;97598.66;5074475;28;20094;-83
2020/12/29 09:09:27;;;;;;;13.93;7.68;;;4.40;92.30;;;4.51;76.40;97592.81;5075091;28;20067;-83
2020/12/29 09:12:15;;;;;;;16.70;8.15;;;4.50;92.50;;;4.57;76.13;97597.34;5074846;28;20136;-83
2020/12/29 09:14:54;;;;;;;15.10;7.07;;;4.50;92.70;;;4.61;76.18;97597.75;5067390;28;20072;-84
2020/12/29 09:17:22;;;;;;;11.98;7.00;;;4.50;92.60;;;4.62;76.25;97589.44;5075941;28;20049;-83
2020/12/29 09:20:14;;;;;;;14.57;7.20;;;4.50;92.50;;;4.63;76.16;97591.09;5077214;28;20135;-83
2020/12/29 09:22:57;;;;;;;;;;;4.50;92.40;;;4.66;75.85;97600.59;5077222;28;20049;-84
2020/12/29 09:25:27;;;;;;;13.90;7.15;;;4.60;92.10;;;4.64;76.28;97602.69;5073331;28;20011;-85
2020/12/29 09:28:22;;;;;;;14.55;7.68;;;4.60;92.40;;;4.62;76.56;97605.59;5074126;28;20094;-85
2020/12/29 09:30:58;;;;;;;12.32;7.40;;;4.70;92.30;;;4.70;76.11;97605.34;5073464;28;20053;-84
2020/12/29 09:33:27;;;;;;;14.20;7.82;;;4.70;92.20;;;4.75;76.04;97614.63;5073782;28;20402;-84
2020/12/29 09:35:54;;;;;;;14.70;8.20;;;4.70;92.10;;;4.72;75.88;97625.84;5076873;28;20068;-83
2020/12/29 09:38:21;;;;;;;13.10;6.97;;;4.80;91.90;;;4.69;76.32;97624.41;5074928;28;20079;-83
2020/12/29 09:40:50;;;;;;;15.50;8.23;;;4.70;92.20;;;4.64;76.33;97635.81;5074212;28;20041;-84
2020/12/29 09:43:18;;;;;;;17.35;8.68;;;4.70;92.10;;;4.70;76.11;97645.75;5075251;28;20044;-83
2020/12/29 09:45:46;;;;;;;15.10;7.82;;;4.70;92.00;;;4.68;76.41;97650.53;5074169;28;20068;-85
2020/12/29 09:48:20;;;;;;;16.40;7.30;;;4.70;91.90;;;4.69;76.63;97652.16;5056471;28;20068;-86
2020/12/29 09:50:50;;;;;;;12.77;8.02;;;4.80;91.90;;;4.75;76.40;97663.13;5070807;28;20052;-86
2020/12/29 09:53:16;;;;;;;13.82;8.23;;;4.80;91.90;;;4.83;76.36;97668.25;5070338;28;20056;-84
2020/12/29 09:55:43;;;;;;;16.02;8.75;;;4.80;92.10;;;4.82;76.27;97674.69;5070874;28;20064;-84
2020/12/29 09:58:10;;;;;;;14.85;7.97;;;4.80;92.10;;;4.81;76.58;97679.22;5051912;28;20544;-85
2020/12/29 10:00:38;;;;;;;18.98;8.68;;;4.80;92.10;;;4.87;76.21;97680.22;5069762;28;20068;-85
2020/12/29 10:03:04;;;;;;;15.15;8.40;;;4.90;92.10;;;4.88;75.89;97684.59;5072029;28;20136;-85
2020/12/29 10:05:31;;;;;;;15.55;8.63;;;4.90;91.90;;;4.90;76.19;97687.88;5057541;28;20845;-85
2020/12/29 10:07:58;;;;;;;17.42;8.30;;;4.90;92.00;;;4.89;76.21;97697.00;5071547;28;20044;-85
2020/12/29 10:10:25;;;;;;;15.32;9.15;;;5.10;91.90;;;4.91;76.31;97700.31;5051941;28;20063;-85
2020/12/29 10:12:52;;;;;;;18.20;8.25;;;4.90;91.80;;;4.86;76.73;97697.44;5058431;28;20045;-85
2020/12/29 10:15:19;;;;;;;17.55;8.38;;;4.90;92.00;;;4.85;76.89;97699.31;5071675;28;20459;-85
2020/12/29 10:17:46;;;;;;;19.45;8.85;;;5.10;91.90;;;4.87;76.65;97702.63;5071437;28;20499;-85
2020/12/29 10:20:14;;;;;;;14.20;8.70;;;5.00;91.90;;;4.97;76.65;97704.84;5073065;28;20052;-83
2020/12/29 10:22:41;;;;;;;17.67;8.57;;;5.00;92.10;;;4.97;76.68;97710.22;5074417;28;20041;-84
2020/12/29 10:25:10;;;;;;;16.75;8.10;;;5.00;91.90;;;4.97;76.51;97710.22;5075045;28;20048;-84
2020/12/29 10:27:37;;;;;;;20.30;9.43;;;5.00;91.80;;;4.94;76.43;97716.03;5075244;28;20590;-84
2020/12/29 10:30:04;;;;;;;14.88;8.35;;;5.00;91.80;;;4.90;76.64;97728.31;5075863;28;20040;-85
2020/12/29 10:32:31;;;;;;;15.68;8.30;;;5.00;91.50;;;4.97;76.60;97734.50;5075254;28;20108;-84
2020/12/29 10:35:08;;;;;;;;;;;;;;;;;;;;;
2020/12/29 10:38:00;;;;;;;19.08;8.90;;;5.00;91.40;;;4.98;76.72;97728.03;5076765;28;20060;-84
2020/12/29 10:40:27;;;;;;;20.50;10.05;;;5.10;91.80;;;5.00;76.57;97734.03;5074994;28;20053;-84
2020/12/29 10:42:54;;;;;;;19.42;11.10;;;5.00;91.70;;;5.01;76.43;97733.00;5075421;28;20047;-84